createdAt,value
2023-03-02T04:57:47.074Z,101016.84
2023-03-02T05:00:49.696Z,101016.84
2023-03-02T05:03:53.057Z,101023.37
2023-03-02T05:06:55.816Z,101018.38
2023-03-02T05:09:57.916Z,101022.66
2023-03-02T05:13:04.824Z,101016.37
2023-03-02T05:16:07.179Z,101020.09
2023-03-02T05:19:12.511Z,101016.84
2023-03-02T05:22:14.684Z,101024.41
2023-03-02T05:25:17.116Z,101024.91
2023-03-02T05:28:20.690Z,101029.78
2023-03-02T05:31:26.346Z,101038.09
2023-03-02T05:34:28.792Z,101026.84
2023-03-02T05:37:31.154Z,101038.28
2023-03-02T05:40:33.718Z,101033.66
2023-03-02T05:43:36.348Z,101032.31
2023-03-02T05:46:38.558Z,101028.84
2023-03-02T05:49:40.981Z,101034.91
2023-03-02T05:52:43.081Z,101042.69
2023-03-02T05:55:45.431Z,101048.50
2023-03-02T05:58:47.553Z,101049.34
2023-03-02T06:01:50.324Z,101050.25
2023-03-02T06:04:52.693Z,101055.78
2023-03-02T06:07:54.847Z,101055.19
2023-03-02T06:10:57.761Z,101046.53
2023-03-02T06:14:02.092Z,101060.78
2023-03-02T06:17:04.729Z,101062.09
2023-03-02T06:20:11.166Z,101061.00
2023-03-02T06:23:14.018Z,101056.91
2023-03-02T06:26:16.572Z,101062.72
2023-03-02T06:29:18.993Z,101054.09
2023-03-02T06:32:21.399Z,101051.97
2023-03-02T06:35:24.351Z,101066.66
2023-03-02T06:38:26.584Z,101074.88
2023-03-02T06:41:28.984Z,101079.72
2023-03-02T06:44:31.224Z,101081.84
2023-03-02T06:47:33.978Z,101074.28
2023-03-02T06:50:36.204Z,101077.87
2023-03-02T06:53:38.600Z,101080.47
2023-03-02T06:56:41.177Z,101082.62
2023-03-02T06:59:43.641Z,101084.25
2023-03-02T07:02:46.559Z,101087.50
2023-03-02T07:05:49.996Z,101083.78
2023-03-02T07:08:52.187Z,101082.00
2023-03-02T07:11:54.583Z,101082.97
2023-03-02T07:14:57.237Z,101077.22
2023-03-02T07:17:59.667Z,101081.69
2023-03-02T07:21:02.320Z,101075.94
2023-03-02T07:24:05.133Z,101079.56
2023-03-02T07:27:07.408Z,101079.69
2023-03-02T07:30:10.723Z,101083.97
2023-03-02T07:33:12.873Z,101086.78
2023-03-02T07:36:15.808Z,101072.25
2023-03-02T07:39:18.915Z,101080.22
2023-03-02T07:42:21.325Z,101077.56
2023-03-02T07:45:25.611Z,101080.47
2023-03-02T07:48:28.017Z,101078.25
2023-03-02T07:51:30.623Z,101077.16
2023-03-02T07:54:33.195Z,101070.87
2023-03-02T07:57:35.873Z,101070.38
2023-03-02T08:00:41.260Z,101069.91
2023-03-02T08:03:45.055Z,101064.84
2023-03-02T08:06:47.199Z,101071.19
2023-03-02T08:09:50.555Z,101071.81
2023-03-02T08:12:52.752Z,101072.78
2023-03-02T08:16:01.844Z,101074.06
2023-03-02T08:19:04.192Z,101067.63
2023-03-02T08:22:06.637Z,101080.97
2023-03-02T08:25:08.949Z,101076.50
2023-03-02T08:28:11.608Z,101081.06
2023-03-02T08:31:14.506Z,101064.91
2023-03-02T08:34:17.074Z,101064.53
2023-03-02T08:37:19.493Z,101060.25
2023-03-02T08:40:21.946Z,101060.25
2023-03-02T08:43:25.435Z,101062.78
2023-03-02T08:46:27.891Z,101058.31
2023-03-02T08:49:30.883Z,101055.91
2023-03-02T08:52:34.667Z,101053.38
2023-03-02T08:55:37.881Z,101051.28
2023-03-02T08:58:41.855Z,101049.12
2023-03-02T09:01:44.116Z,101050.97
2023-03-02T09:04:47.051Z,101043.47
2023-03-02T09:07:50.126Z,101050.09
2023-03-02T09:10:53.115Z,101037.34
2023-03-02T09:13:56.269Z,101035.94
2023-03-02T09:16:58.988Z,101037.84
2023-03-02T09:20:01.163Z,101037.28
2023-03-02T09:23:03.609Z,101036.00
2023-03-02T09:26:06.066Z,101028.19
2023-03-02T09:29:09.807Z,101028.12
2023-03-02T09:32:13.510Z,101030.44
2023-03-02T09:35:16.135Z,101030.41
2023-03-02T09:38:19.060Z,101027.94
2023-03-02T09:41:21.749Z,101022.91
2023-03-02T09:45:15.060Z,101021.06
2023-03-02T09:48:37.407Z,101019.84
2023-03-02T09:51:58.264Z,101013.16
2023-03-02T09:55:13.651Z,101014.56
2023-03-02T09:58:19.992Z,101011.06
2023-03-02T10:01:34.584Z,101012.63
2023-03-02T10:04:44.314Z,101003.03
2023-03-02T10:07:47.918Z,101010.09
2023-03-02T10:11:23.563Z,101000.44
2023-03-02T10:14:39.272Z,101000.19
2023-03-02T10:18:10.920Z,100995.31
2023-03-02T10:21:22.600Z,101000.19
2023-03-02T10:24:39.922Z,100993.94
2023-03-02T10:27:49.712Z,100994.03
2023-03-02T10:31:09.479Z,100993.28
2023-03-02T10:34:12.392Z,100990.53
2023-03-02T10:37:18.751Z,100983.56
2023-03-02T10:41:00.119Z,100991.38
2023-03-02T10:44:08.721Z,100977.97
2023-03-02T10:47:26.937Z,100976.88
2023-03-02T10:50:30.766Z,100975.81
2023-03-02T10:53:33.172Z,100972.56
2023-03-02T10:56:36.252Z,100963.22
2023-03-02T10:59:43.816Z,100954.88
2023-03-02T11:02:56.939Z,100948.97
2023-03-02T11:06:16.583Z,100950.28
2023-03-02T11:09:19.365Z,100942.25
2023-03-02T11:12:21.541Z,100943.06
2023-03-02T11:15:40.329Z,100944.66
2023-03-02T11:19:12.001Z,100936.31
2023-03-02T11:22:32.691Z,100933.00
2023-03-02T11:25:40.446Z,100936.28
2023-03-02T11:28:49.069Z,100927.12
2023-03-02T11:31:56.339Z,100931.41
2023-03-02T11:35:13.828Z,100927.63
2023-03-02T11:38:54.795Z,100927.59
2023-03-02T11:41:58.573Z,100924.34
2023-03-02T11:45:11.129Z,100913.91
2023-03-02T11:48:29.804Z,100920.88
2023-03-02T11:51:50.083Z,100914.19
2023-03-02T11:55:03.317Z,100907.19
2023-03-02T11:58:06.222Z,100898.81
2023-03-02T12:01:17.765Z,100910.66
2023-03-02T12:04:39.057Z,100901.75
2023-03-02T12:07:41.622Z,100902.47
2023-03-02T12:11:15.490Z,100896.94
2023-03-02T12:14:47.120Z,100893.97
2023-03-02T12:17:49.621Z,100897.84
2023-03-02T12:21:10.390Z,100894.66
2023-03-02T12:24:31.032Z,100891.69
2023-03-02T12:27:39.727Z,100885.81
2023-03-02T12:30:42.513Z,100886.19
2023-03-02T12:33:50.874Z,100884.69
2023-03-02T12:37:33.325Z,100875.56
2023-03-02T12:41:17.502Z,100871.25
2023-03-02T12:44:43.884Z,100867.72
2023-03-02T12:47:51.432Z,100864.16
2023-03-02T12:51:02.313Z,100860.44
2023-03-02T12:54:06.745Z,100852.28
2023-03-02T12:57:15.803Z,100858.13
2023-03-02T13:00:21.073Z,100858.56
2023-03-02T13:03:24.600Z,100852.97
2023-03-02T13:06:30.610Z,100845.25
2023-03-02T13:09:33.031Z,100844.78
2023-03-02T13:12:36.663Z,100845.62
2023-03-02T13:15:59.990Z,100836.97
2023-03-02T13:19:11.375Z,100830.28
2023-03-02T13:22:14.917Z,100840.06
2023-03-02T13:25:29.167Z,100832.97
2023-03-02T13:28:34.481Z,100831.75
2023-03-02T13:31:36.808Z,100818.94
2023-03-02T13:34:49.462Z,100816.16
2023-03-02T13:38:02.314Z,100817.72
2023-03-02T13:41:05.507Z,100811.44
2023-03-02T13:44:19.936Z,100808.19
2023-03-02T13:47:24.611Z,100802.03
2023-03-02T13:50:29.922Z,100791.72
2023-03-02T13:53:37.823Z,100790.00
2023-03-02T13:56:41.210Z,100790.94
2023-03-02T13:59:44.986Z,100782.97
2023-03-02T14:02:48.641Z,100777.59
2023-03-02T14:05:51.931Z,100771.25
2023-03-02T14:08:54.076Z,100766.78
2023-03-02T14:11:57.742Z,100761.28
2023-03-02T14:15:03.525Z,100765.53
2023-03-02T14:18:31.036Z,100756.34
2023-03-02T14:21:33.526Z,100754.22
2023-03-02T14:24:36.109Z,100759.59
2023-03-02T14:27:38.940Z,100754.44
2023-03-02T14:30:44.427Z,100746.72
2023-03-02T14:33:46.580Z,100752.28
2023-03-02T14:36:52.425Z,100752.75
2023-03-02T14:39:55.729Z,100752.19
2023-03-02T14:42:58.180Z,100744.72
2023-03-02T14:46:00.305Z,100742.44
2023-03-02T14:49:02.784Z,100735.81
2023-03-02T14:52:07.552Z,100735.91
2023-03-02T14:55:25.834Z,100737.00
2023-03-02T14:58:33.767Z,100738.06
2023-03-02T15:01:36.371Z,100733.03
2023-03-02T15:04:38.579Z,100733.13
2023-03-02T15:07:41.340Z,100734.12
2023-03-02T15:10:43.562Z,100732.91
2023-03-02T15:13:45.967Z,100731.66
2023-03-02T15:16:48.066Z,100733.25
2023-03-02T15:19:50.442Z,100739.13
2023-03-02T15:22:52.841Z,100733.94
2023-03-02T15:26:02.239Z,100730.12
2023-03-02T15:29:04.943Z,100734.75
2023-03-02T15:32:07.500Z,100738.31
2023-03-02T15:35:12.432Z,100735.50
2023-03-02T15:38:14.992Z,100738.13
2023-03-02T15:41:17.446Z,100740.59
2023-03-02T15:44:23.748Z,100743.13
2023-03-02T15:47:25.992Z,100752.59
2023-03-02T15:50:28.371Z,100750.47
2023-03-02T15:53:32.818Z,100745.09
2023-03-02T15:56:43.740Z,100743.09
2023-03-02T15:59:46.799Z,100747.41
2023-03-02T16:02:49.903Z,100746.84
2023-03-02T16:05:52.612Z,100750.56
2023-03-02T16:08:54.750Z,100756.34
2023-03-02T16:11:57.676Z,100760.72
2023-03-02T16:14:59.838Z,100748.87
2023-03-02T16:18:02.194Z,100751.34
2023-03-02T16:21:04.956Z,100764.03
2023-03-02T16:24:07.865Z,100754.97
2023-03-02T16:27:10.117Z,100761.72
2023-03-02T16:30:13.280Z,100760.44
2023-03-02T16:33:17.913Z,100759.41
2023-03-02T16:36:21.616Z,100763.22
2023-03-02T16:39:23.847Z,100763.25
2023-03-02T16:42:28.417Z,100760.38
2023-03-02T16:45:30.515Z,100769.00
2023-03-02T16:48:32.875Z,100765.81
2023-03-02T16:51:34.949Z,100777.97
2023-03-02T16:54:37.307Z,100772.09
